sensor_id;sensor_type;location;lat;lon;timestamp;temperature;humidity
49829;DHT22;35723;51.194;5.112;2023-03-14T00:01:46;13.50;99.90
49829;DHT22;35723;51.194;5.112;2023-03-14T00:04:14;13.50;99.90
49829;DHT22;35723;51.194;5.112;2023-03-14T00:06:39;13.50;99.90
49829;DHT22;35723;51.194;5.112;2023-03-14T00:09:05;13.50;99.90
49829;DHT22;35723;51.194;5.112;2023-03-14T00:11:31;13.50;99.90
49829;DHT22;35723;51.194;5.112;2023-03-14T00:13:56;13.60;99.90
49829;DHT22;35723;51.194;5.112;2023-03-14T00:16:22;13.50;99.90
49829;DHT22;35723;51.194;5.112;2023-03-14T00:18:48;13.50;99.90
49829;DHT22;35723;51.194;5.112;2023-03-14T00:21:13;13.40;99.90
49829;DHT22;35723;51.194;5.112;2023-03-14T00:23:41;13.40;99.90
49829;DHT22;35723;51.194;5.112;2023-03-14T00:26:10;13.50;99.90
49829;DHT22;35723;51.194;5.112;2023-03-14T00:28:36;13.40;99.90
49829;DHT22;35723;51.194;5.112;2023-03-14T00:31:05;13.30;99.90
49829;DHT22;35723;51.194;5.112;2023-03-14T00:33:31;13.30;99.90
49829;DHT22;35723;51.194;5.112;2023-03-14T00:36:00;13.30;99.90
49829;DHT22;35723;51.194;5.112;2023-03-14T00:38:26;13.30;99.90
49829;DHT22;35723;51.194;5.112;2023-03-14T00:40:52;13.40;99.90
49829;DHT22;35723;51.194;5.112;2023-03-14T00:43:19;13.30;99.90
49829;DHT22;35723;51.194;5.112;2023-03-14T00:45:50;13.20;99.90
49829;DHT22;35723;51.194;5.112;2023-03-14T00:48:17;13.20;99.90
49829;DHT22;35723;51.194;5.112;2023-03-14T00:50:43;13.10;99.90
49829;DHT22;35723;51.194;5.112;2023-03-14T00:53:09;13.30;99.90
49829;DHT22;35723;51.194;5.112;2023-03-14T00:55:38;13.30;99.90
49829;DHT22;35723;51.194;5.112;2023-03-14T00:58:05;13.30;99.90
49829;DHT22;35723;51.194;5.112;2023-03-14T01:00:31;13.30;99.90
49829;DHT22;35723;51.194;5.112;2023-03-14T01:02:57;13.20;99.90
49829;DHT22;35723;51.194;5.112;2023-03-14T01:05:23;13.30;99.90
49829;DHT22;35723;51.194;5.112;2023-03-14T01:07:49;13.40;99.90
49829;DHT22;35723;51.194;5.112;2023-03-14T01:10:15;13.20;99.90
49829;DHT22;35723;51.194;5.112;2023-03-14T01:12:40;13.20;99.90
49829;DHT22;35723;51.194;5.112;2023-03-14T01:15:06;13.20;99.90
49829;DHT22;35723;51.194;5.112;2023-03-14T01:17:32;13.20;99.90
49829;DHT22;35723;51.194;5.112;2023-03-14T01:20:00;13.20;99.90
49829;DHT22;35723;51.194;5.112;2023-03-14T01:22:26;13.20;99.90
49829;DHT22;35723;51.194;5.112;2023-03-14T01:24:51;13.30;99.90
49829;DHT22;35723;51.194;5.112;2023-03-14T01:27:17;13.10;99.90
49829;DHT22;35723;51.194;5.112;2023-03-14T01:29:43;13.00;99.90
49829;DHT22;35723;51.194;5.112;2023-03-14T01:32:08;13.10;99.90
49829;DHT22;35723;51.194;5.112;2023-03-14T01:34:34;13.10;99.90
49829;DHT22;35723;51.194;5.112;2023-03-14T01:37:00;13.10;99.90
49829;DHT22;35723;51.194;5.112;2023-03-14T01:39:25;13.10;99.90
49829;DHT22;35723;51.194;5.112;2023-03-14T01:41:51;13.10;99.90
49829;DHT22;35723;51.194;5.112;2023-03-14T01:44:16;13.10;99.90
49829;DHT22;35723;51.194;5.112;2023-03-14T01:46:44;13.00;99.90
49829;DHT22;35723;51.194;5.112;2023-03-14T01:49:29;13.00;99.90
49829;DHT22;35723;51.194;5.112;2023-03-14T01:51:59;12.90;99.90
49829;DHT22;35723;51.194;5.112;2023-03-14T01:54:31;12.90;99.90
49829;DHT22;35723;51.194;5.112;2023-03-14T01:59:37;12.80;99.90
49829;DHT22;35723;51.194;5.112;2023-03-14T02:02:06;12.80;99.90
49829;DHT22;35723;51.194;5.112;2023-03-14T02:04:34;13.00;99.90
49829;DHT22;35723;51.194;5.112;2023-03-14T02:07:12;13.00;99.90
49829;DHT22;35723;51.194;5.112;2023-03-14T02:09:39;13.00;99.90
49829;DHT22;35723;51.194;5.112;2023-03-14T02:12:06;12.90;99.90
49829;DHT22;35723;51.194;5.112;2023-03-14T02:14:35;12.80;99.90
49829;DHT22;35723;51.194;5.112;2023-03-14T02:17:03;12.80;99.90
49829;DHT22;35723;51.194;5.112;2023-03-14T02:22:22;13.00;99.90
49829;DHT22;35723;51.194;5.112;2023-03-14T02:27:58;13.20;99.90
49829;DHT22;35723;51.194;5.112;2023-03-14T02:30:30;13.10;99.90
49829;DHT22;35723;51.194;5.112;2023-03-14T02:33:20;13.10;99.90
49829;DHT22;35723;51.194;5.112;2023-03-14T02:35:52;13.00;99.90
49829;DHT22;35723;51.194;5.112;2023-03-14T02:40:56;13.10;99.90
49829;DHT22;35723;51.194;5.112;2023-03-14T02:43:22;13.10;99.90
49829;DHT22;35723;51.194;5.112;2023-03-14T02:45:49;13.00;99.90
49829;DHT22;35723;51.194;5.112;2023-03-14T02:48:26;13.10;99.90
49829;DHT22;35723;51.194;5.112;2023-03-14T02:50:59;13.00;99.90
49829;DHT22;35723;51.194;5.112;2023-03-14T02:53:28;13.00;99.90
49829;DHT22;35723;51.194;5.112;2023-03-14T02:55:54;13.00;99.90
49829;DHT22;35723;51.194;5.112;2023-03-14T02:58:21;13.00;99.90
49829;DHT22;35723;51.194;5.112;2023-03-14T03:00:47;13.00;99.90
49829;DHT22;35723;51.194;5.112;2023-03-14T03:03:13;12.90;99.90
49829;DHT22;35723;51.194;5.112;2023-03-14T03:05:39;12.80;99.90
49829;DHT22;35723;51.194;5.112;2023-03-14T03:08:04;12.80;99.90
49829;DHT22;35723;51.194;5.112;2023-03-14T03:10:31;12.80;99.90
49829;DHT22;35723;51.194;5.112;2023-03-14T03:12:57;12.80;99.90
49829;DHT22;35723;51.194;5.112;2023-03-14T03:15:23;12.90;99.90
49829;DHT22;35723;51.194;5.112;2023-03-14T03:17:49;12.90;99.90
49829;DHT22;35723;51.194;5.112;2023-03-14T03:20:14;12.80;99.90
49829;DHT22;35723;51.194;5.112;2023-03-14T03:22:40;12.70;99.90
49829;DHT22;35723;51.194;5.112;2023-03-14T03:25:07;12.60;99.90
49829;DHT22;35723;51.194;5.112;2023-03-14T03:27:34;12.70;99.90
49829;DHT22;35723;51.194;5.112;2023-03-14T03:30:00;12.80;99.90
49829;DHT22;35723;51.194;5.112;2023-03-14T03:32:26;12.70;99.90
49829;DHT22;35723;51.194;5.112;2023-03-14T03:34:52;12.70;99.90
49829;DHT22;35723;51.194;5.112;2023-03-14T03:37:17;12.80;99.90
49829;DHT22;35723;51.194;5.112;2023-03-14T03:39:43;12.70;99.90
49829;DHT22;35723;51.194;5.112;2023-03-14T03:42:09;12.70;99.90
49829;DHT22;35723;51.194;5.112;2023-03-14T03:44:35;12.60;99.90
49829;DHT22;35723;51.194;5.112;2023-03-14T03:47:00;12.70;99.90
49829;DHT22;35723;51.194;5.112;2023-03-14T03:49:30;12.70;99.90
49829;DHT22;35723;51.194;5.112;2023-03-14T03:51:56;12.50;99.90
49829;DHT22;35723;51.194;5.112;2023-03-14T03:54:22;12.20;99.90
49829;DHT22;35723;51.194;5.112;2023-03-14T03:56:48;12.10;99.90
49829;DHT22;35723;51.194;5.112;2023-03-14T03:59:14;12.20;99.90
49829;DHT22;35723;51.194;5.112;2023-03-14T04:01:40;12.10;99.90
49829;DHT22;35723;51.194;5.112;2023-03-14T04:04:06;12.00;99.90
49829;DHT22;35723;51.194;5.112;2023-03-14T04:06:33;12.00;99.90
49829;DHT22;35723;51.194;5.112;2023-03-14T04:08:58;12.10;99.90
49829;DHT22;35723;51.194;5.112;2023-03-14T04:11:24;12.00;99.90
49829;DHT22;35723;51.194;5.112;2023-03-14T04:13:50;12.00;99.90
49829;DHT22;35723;51.194;5.112;2023-03-14T04:16:23;12.00;99.90
49829;DHT22;35723;51.194;5.112;2023-03-14T04:18:50;12.00;99.90
49829;DHT22;35723;51.194;5.112;2023-03-14T04:21:16;12.10;99.90
49829;DHT22;35723;51.194;5.112;2023-03-14T04:23:42;12.00;99.90
49829;DHT22;35723;51.194;5.112;2023-03-14T04:26:08;12.10;99.90
49829;DHT22;35723;51.194;5.112;2023-03-14T04:28:33;12.10;99.90
49829;DHT22;35723;51.194;5.112;2023-03-14T04:31:16;12.10;99.90
49829;DHT22;35723;51.194;5.112;2023-03-14T04:33:42;12.20;99.90
49829;DHT22;35723;51.194;5.112;2023-03-14T04:36:09;12.30;99.90
49829;DHT22;35723;51.194;5.112;2023-03-14T04:38:34;12.20;99.90
49829;DHT22;35723;51.194;5.112;2023-03-14T04:41:01;12.10;99.90
49829;DHT22;35723;51.194;5.112;2023-03-14T04:43:27;12.10;99.90
49829;DHT22;35723;51.194;5.112;2023-03-14T04:45:57;12.10;99.90
49829;DHT22;35723;51.194;5.112;2023-03-14T04:48:24;12.20;99.90
49829;DHT22;35723;51.194;5.112;2023-03-14T04:50:50;12.10;99.90
49829;DHT22;35723;51.194;5.112;2023-03-14T04:53:17;12.10;99.90
49829;DHT22;35723;51.194;5.112;2023-03-14T04:55:48;12.10;99.90
49829;DHT22;35723;51.194;5.112;2023-03-14T04:58:13;12.00;99.90
49829;DHT22;35723;51.194;5.112;2023-03-14T05:00:39;11.90;99.90
49829;DHT22;35723;51.194;5.112;2023-03-14T05:03:05;12.10;99.90
49829;DHT22;35723;51.194;5.112;2023-03-14T05:05:30;11.90;99.90
49829;DHT22;35723;51.194;5.112;2023-03-14T05:07:56;12.00;99.90
49829;DHT22;35723;51.194;5.112;2023-03-14T05:10:22;12.00;99.90
49829;DHT22;35723;51.194;5.112;2023-03-14T05:12:47;12.00;99.90
49829;DHT22;35723;51.194;5.112;2023-03-14T05:15:13;12.00;99.90
49829;DHT22;35723;51.194;5.112;2023-03-14T05:17:38;12.00;99.90
49829;DHT22;35723;51.194;5.112;2023-03-14T05:20:04;11.90;99.90
49829;DHT22;35723;51.194;5.112;2023-03-14T05:22:38;11.90;99.90
49829;DHT22;35723;51.194;5.112;2023-03-14T05:25:05;12.10;99.90
49829;DHT22;35723;51.194;5.112;2023-03-14T05:27:31;12.20;99.90
49829;DHT22;35723;51.194;5.112;2023-03-14T05:29:57;12.20;99.90
49829;DHT22;35723;51.194;5.112;2023-03-14T05:32:22;12.10;99.90
49829;DHT22;35723;51.194;5.112;2023-03-14T05:34:48;12.10;99.90
49829;DHT22;35723;51.194;5.112;2023-03-14T05:37:14;12.20;99.90
49829;DHT22;35723;51.194;5.112;2023-03-14T05:39:39;12.20;99.90
49829;DHT22;35723;51.194;5.112;2023-03-14T05:42:05;12.10;99.90
49829;DHT22;35723;51.194;5.112;2023-03-14T05:44:30;12.10;99.90
49829;DHT22;35723;51.194;5.112;2023-03-14T05:46:56;12.00;99.90
49829;DHT22;35723;51.194;5.112;2023-03-14T05:49:22;12.10;99.90
49829;DHT22;35723;51.194;5.112;2023-03-14T05:51:47;11.90;99.90
49829;DHT22;35723;51.194;5.112;2023-03-14T05:54:13;12.00;99.90
49829;DHT22;35723;51.194;5.112;2023-03-14T05:56:39;12.00;99.90
49829;DHT22;35723;51.194;5.112;2023-03-14T05:59:04;11.90;99.90
49829;DHT22;35723;51.194;5.112;2023-03-14T06:01:31;11.80;99.90
49829;DHT22;35723;51.194;5.112;2023-03-14T06:03:57;11.90;99.90
49829;DHT22;35723;51.194;5.112;2023-03-14T06:06:22;12.00;99.90
49829;DHT22;35723;51.194;5.112;2023-03-14T06:08:48;12.00;99.90
49829;DHT22;35723;51.194;5.112;2023-03-14T06:11:14;12.10;99.90
49829;DHT22;35723;51.194;5.112;2023-03-14T06:13:39;12.10;99.90
49829;DHT22;35723;51.194;5.112;2023-03-14T06:16:05;12.10;99.90
49829;DHT22;35723;51.194;5.112;2023-03-14T06:18:31;12.20;99.90
49829;DHT22;35723;51.194;5.112;2023-03-14T06:20:57;12.10;99.90
49829;DHT22;35723;51.194;5.112;2023-03-14T06:23:23;12.10;99.90
49829;DHT22;35723;51.194;5.112;2023-03-14T06:25:49;12.00;99.90
49829;DHT22;35723;51.194;5.112;2023-03-14T06:28:15;12.00;99.90
49829;DHT22;35723;51.194;5.112;2023-03-14T06:30:40;12.00;99.90
49829;DHT22;35723;51.194;5.112;2023-03-14T06:33:06;12.10;99.90
49829;DHT22;35723;51.194;5.112;2023-03-14T06:35:32;12.10;99.90
49829;DHT22;35723;51.194;5.112;2023-03-14T06:37:57;12.20;99.90
49829;DHT22;35723;51.194;5.112;2023-03-14T06:40:23;12.20;99.90
49829;DHT22;35723;51.194;5.112;2023-03-14T06:42:49;12.20;99.90
49829;DHT22;35723;51.194;5.112;2023-03-14T06:45:15;12.20;99.90
49829;DHT22;35723;51.194;5.112;2023-03-14T06:47:40;12.30;99.90
49829;DHT22;35723;51.194;5.112;2023-03-14T06:50:07;12.30;99.90
49829;DHT22;35723;51.194;5.112;2023-03-14T06:52:33;12.20;99.90
49829;DHT22;35723;51.194;5.112;2023-03-14T06:55:00;12.20;99.90
49829;DHT22;35723;51.194;5.112;2023-03-14T06:57:26;12.30;99.90
49829;DHT22;35723;51.194;5.112;2023-03-14T06:59:51;12.20;99.90
49829;DHT22;35723;51.194;5.112;2023-03-14T07:02:17;12.20;99.90
49829;DHT22;35723;51.194;5.112;2023-03-14T07:04:43;12.20;99.90
49829;DHT22;35723;51.194;5.112;2023-03-14T07:07:09;12.30;99.90
49829;DHT22;35723;51.194;5.112;2023-03-14T07:09:35;12.30;99.90
49829;DHT22;35723;51.194;5.112;2023-03-14T07:12:01;12.40;99.90
49829;DHT22;35723;51.194;5.112;2023-03-14T07:14:26;12.40;99.90
49829;DHT22;35723;51.194;5.112;2023-03-14T07:16:52;12.30;99.90
49829;DHT22;35723;51.194;5.112;2023-03-14T07:19:18;12.20;99.90
49829;DHT22;35723;51.194;5.112;2023-03-14T07:21:43;12.00;99.90
49829;DHT22;35723;51.194;5.112;2023-03-14T07:24:09;12.00;99.90
49829;DHT22;35723;51.194;5.112;2023-03-14T07:26:35;12.00;99.90
49829;DHT22;35723;51.194;5.112;2023-03-14T07:29:01;11.90;99.90
49829;DHT22;35723;51.194;5.112;2023-03-14T07:31:29;11.90;99.90
49829;DHT22;35723;51.194;5.112;2023-03-14T07:33:55;11.80;99.90
49829;DHT22;35723;51.194;5.112;2023-03-14T07:36:21;11.80;99.90
49829;DHT22;35723;51.194;5.112;2023-03-14T07:38:46;11.80;99.90
49829;DHT22;35723;51.194;5.112;2023-03-14T07:41:13;11.80;99.90
49829;DHT22;35723;51.194;5.112;2023-03-14T07:43:38;11.80;99.90
49829;DHT22;35723;51.194;5.112;2023-03-14T07:46:04;11.70;99.90
49829;DHT22;35723;51.194;5.112;2023-03-14T07:48:30;11.70;99.90
49829;DHT22;35723;51.194;5.112;2023-03-14T07:50:56;11.70;99.90
49829;DHT22;35723;51.194;5.112;2023-03-14T07:53:22;11.70;99.90
49829;DHT22;35723;51.194;5.112;2023-03-14T07:55:51;11.70;99.90
49829;DHT22;35723;51.194;5.112;2023-03-14T07:58:17;11.70;99.90
49829;DHT22;35723;51.194;5.112;2023-03-14T08:00:43;11.60;99.90
49829;DHT22;35723;51.194;5.112;2023-03-14T08:03:09;11.60;99.90
49829;DHT22;35723;51.194;5.112;2023-03-14T08:05:38;11.70;99.90
49829;DHT22;35723;51.194;5.112;2023-03-14T08:08:04;11.70;99.90
49829;DHT22;35723;51.194;5.112;2023-03-14T08:10:31;11.60;99.90
49829;DHT22;35723;51.194;5.112;2023-03-14T08:12:58;11.60;99.90
49829;DHT22;35723;51.194;5.112;2023-03-14T08:15:24;11.50;99.90
49829;DHT22;35723;51.194;5.112;2023-03-14T08:17:50;11.40;99.90
49829;DHT22;35723;51.194;5.112;2023-03-14T08:20:21;11.40;99.90
49829;DHT22;35723;51.194;5.112;2023-03-14T08:22:47;11.40;99.90
49829;DHT22;35723;51.194;5.112;2023-03-14T08:25:13;11.30;99.90
49829;DHT22;35723;51.194;5.112;2023-03-14T08:27:39;11.20;99.90
49829;DHT22;35723;51.194;5.112;2023-03-14T08:30:11;11.30;99.90
49829;DHT22;35723;51.194;5.112;2023-03-14T08:32:37;11.10;99.90
49829;DHT22;35723;51.194;5.112;2023-03-14T08:35:03;11.10;99.90
49829;DHT22;35723;51.194;5.112;2023-03-14T08:37:32;11.00;99.90
49829;DHT22;35723;51.194;5.112;2023-03-14T08:39:57;11.00;99.90
49829;DHT22;35723;51.194;5.112;2023-03-14T08:42:23;11.00;99.90
49829;DHT22;35723;51.194;5.112;2023-03-14T08:44:51;11.10;99.90
49829;DHT22;35723;51.194;5.112;2023-03-14T08:47:17;11.10;99.90
49829;DHT22;35723;51.194;5.112;2023-03-14T08:49:42;11.20;99.90
49829;DHT22;35723;51.194;5.112;2023-03-14T08:52:08;11.10;99.90
49829;DHT22;35723;51.194;5.112;2023-03-14T08:54:34;11.00;99.90
49829;DHT22;35723;51.194;5.112;2023-03-14T08:57:00;11.00;99.90
49829;DHT22;35723;51.194;5.112;2023-03-14T08:59:25;11.00;99.90
49829;DHT22;35723;51.194;5.112;2023-03-14T09:01:51;11.00;99.90
49829;DHT22;35723;51.194;5.112;2023-03-14T09:04:17;11.00;99.90
49829;DHT22;35723;51.194;5.112;2023-03-14T09:06:43;11.10;99.90
49829;DHT22;35723;51.194;5.112;2023-03-14T09:09:08;11.20;99.90
49829;DHT22;35723;51.194;5.112;2023-03-14T09:11:34;11.10;99.90
49829;DHT22;35723;51.194;5.112;2023-03-14T09:14:00;11.10;99.90
49829;DHT22;35723;51.194;5.112;2023-03-14T09:16:25;11.00;99.90
49829;DHT22;35723;51.194;5.112;2023-03-14T09:18:51;11.00;99.90
49829;DHT22;35723;51.194;5.112;2023-03-14T09:21:20;11.00;99.90
49829;DHT22;35723;51.194;5.112;2023-03-14T09:23:46;11.00;99.90
49829;DHT22;35723;51.194;5.112;2023-03-14T09:26:12;11.00;99.90
49829;DHT22;35723;51.194;5.112;2023-03-14T09:28:37;11.10;99.90
49829;DHT22;35723;51.194;5.112;2023-03-14T09:31:07;11.10;99.90
49829;DHT22;35723;51.194;5.112;2023-03-14T09:33:34;11.10;99.90
49829;DHT22;35723;51.194;5.112;2023-03-14T09:36:00;11.10;99.90
49829;DHT22;35723;51.194;5.112;2023-03-14T09:38:26;11.10;99.90
49829;DHT22;35723;51.194;5.112;2023-03-14T09:40:53;11.00;99.90
49829;DHT22;35723;51.194;5.112;2023-03-14T09:43:21;11.00;99.90
49829;DHT22;35723;51.194;5.112;2023-03-14T09:45:48;11.00;99.90
49829;DHT22;35723;51.194;5.112;2023-03-14T09:48:26;11.00;99.90
49829;DHT22;35723;51.194;5.112;2023-03-14T09:50:55;11.10;99.90
49829;DHT22;35723;51.194;5.112;2023-03-14T09:53:28;11.10;99.90
49829;DHT22;35723;51.194;5.112;2023-03-14T09:55:57;11.10;99.90
49829;DHT22;35723;51.194;5.112;2023-03-14T09:58:24;11.20;99.90
49829;DHT22;35723;51.194;5.112;2023-03-14T10:00:53;11.20;99.90
49829;DHT22;35723;51.194;5.112;2023-03-14T10:05:49;11.30;99.90
49829;DHT22;35723;51.194;5.112;2023-03-14T10:08:15;11.30;99.90
49829;DHT22;35723;51.194;5.112;2023-03-14T10:10:40;11.20;99.90
49829;DHT22;35723;51.194;5.112;2023-03-14T10:13:26;11.20;99.90
49829;DHT22;35723;51.194;5.112;2023-03-14T10:16:02;11.20;99.90
49829;DHT22;35723;51.194;5.112;2023-03-14T10:18:31;11.20;99.90
49829;DHT22;35723;51.194;5.112;2023-03-14T10:21:28;11.10;99.90
49829;DHT22;35723;51.194;5.112;2023-03-14T10:23:54;11.20;99.90
49829;DHT22;35723;51.194;5.112;2023-03-14T10:26:29;11.30;99.90
49829;DHT22;35723;51.194;5.112;2023-03-14T10:29:11;11.30;99.90
49829;DHT22;35723;51.194;5.112;2023-03-14T10:31:54;11.10;99.90
49829;DHT22;35723;51.194;5.112;2023-03-14T10:34:24;11.10;99.90
49829;DHT22;35723;51.194;5.112;2023-03-14T10:36:55;11.00;99.90
49829;DHT22;35723;51.194;5.112;2023-03-14T10:39:27;11.20;99.90
49829;DHT22;35723;51.194;5.112;2023-03-14T10:44:55;11.30;99.90
49829;DHT22;35723;51.194;5.112;2023-03-14T10:47:23;11.30;99.90
49829;DHT22;35723;51.194;5.112;2023-03-14T10:49:49;11.40;99.90
49829;DHT22;35723;51.194;5.112;2023-03-14T10:52:22;11.30;99.90
49829;DHT22;35723;51.194;5.112;2023-03-14T10:55:00;11.20;99.90
49829;DHT22;35723;51.194;5.112;2023-03-14T10:57:27;11.20;99.90
49829;DHT22;35723;51.194;5.112;2023-03-14T10:59:53;11.10;99.90
49829;DHT22;35723;51.194;5.112;2023-03-14T11:05:43;11.00;99.90
49829;DHT22;35723;51.194;5.112;2023-03-14T11:11:02;11.00;99.90
49829;DHT22;35723;51.194;5.112;2023-03-14T11:19:00;11.10;99.90
49829;DHT22;35723;51.194;5.112;2023-03-14T11:21:33;11.20;99.90
49829;DHT22;35723;51.194;5.112;2023-03-14T11:27:22;11.20;99.90
49829;DHT22;35723;51.194;5.112;2023-03-14T11:30:20;11.30;99.90
49829;DHT22;35723;51.194;5.112;2023-03-14T11:35:30;11.40;99.90
49829;DHT22;35723;51.194;5.112;2023-03-14T11:38:05;11.30;99.90
49829;DHT22;35723;51.194;5.112;2023-03-14T11:40:36;11.20;99.90
49829;DHT22;35723;51.194;5.112;2023-03-14T11:43:12;11.30;99.90
49829;DHT22;35723;51.194;5.112;2023-03-14T11:45:42;11.30;99.90
49829;DHT22;35723;51.194;5.112;2023-03-14T11:48:32;11.20;99.90
49829;DHT22;35723;51.194;5.112;2023-03-14T11:51:02;11.10;99.90
49829;DHT22;35723;51.194;5.112;2023-03-14T11:53:42;11.00;99.90
49829;DHT22;35723;51.194;5.112;2023-03-14T11:56:21;10.70;99.90
49829;DHT22;35723;51.194;5.112;2023-03-14T11:59:24;10.60;99.90
49829;DHT22;35723;51.194;5.112;2023-03-14T12:02:00;10.60;99.90
49829;DHT22;35723;51.194;5.112;2023-03-14T12:10:39;10.60;99.90
49829;DHT22;35723;51.194;5.112;2023-03-14T12:13:09;10.50;99.90
49829;DHT22;35723;51.194;5.112;2023-03-14T12:15:40;10.50;99.90
49829;DHT22;35723;51.194;5.112;2023-03-14T12:20:55;10.40;99.90
49829;DHT22;35723;51.194;5.112;2023-03-14T12:23:23;10.40;99.90
49829;DHT22;35723;51.194;5.112;2023-03-14T12:26:13;10.40;99.90
49829;DHT22;35723;51.194;5.112;2023-03-14T12:28:44;10.50;99.90
49829;DHT22;35723;51.194;5.112;2023-03-14T12:31:46;10.50;99.90
49829;DHT22;35723;51.194;5.112;2023-03-14T12:42:05;10.40;99.90
49829;DHT22;35723;51.194;5.112;2023-03-14T12:44:45;10.40;99.90
49829;DHT22;35723;51.194;5.112;2023-03-14T12:49:48;10.60;99.90
49829;DHT22;35723;51.194;5.112;2023-03-14T12:52:45;10.60;99.90
49829;DHT22;35723;51.194;5.112;2023-03-14T12:55:21;10.60;99.90
49829;DHT22;35723;51.194;5.112;2023-03-14T13:01:01;9.20;99.90
49829;DHT22;35723;51.194;5.112;2023-03-14T13:03:39;9.20;99.90
49829;DHT22;35723;51.194;5.112;2023-03-14T13:06:09;9.30;99.90
49829;DHT22;35723;51.194;5.112;2023-03-14T13:08:41;9.50;99.90
49829;DHT22;35723;51.194;5.112;2023-03-14T13:11:14;9.70;99.90
49829;DHT22;35723;51.194;5.112;2023-03-14T13:13:45;9.90;99.90
49829;DHT22;35723;51.194;5.112;2023-03-14T13:16:19;10.10;99.90
49829;DHT22;35723;51.194;5.112;2023-03-14T13:19:09;10.20;99.90
49829;DHT22;35723;51.194;5.112;2023-03-14T13:21:35;10.40;99.90
49829;DHT22;35723;51.194;5.112;2023-03-14T13:24:18;10.50;99.90
49829;DHT22;35723;51.194;5.112;2023-03-14T13:26:45;10.50;99.90
49829;DHT22;35723;51.194;5.112;2023-03-14T13:29:17;10.60;99.90
49829;DHT22;35723;51.194;5.112;2023-03-14T13:31:46;10.70;99.90
49829;DHT22;35723;51.194;5.112;2023-03-14T13:34:12;10.70;99.90
49829;DHT22;35723;51.194;5.112;2023-03-14T13:36:38;10.70;99.90
49829;DHT22;35723;51.194;5.112;2023-03-14T13:39:10;10.80;99.90
49829;DHT22;35723;51.194;5.112;2023-03-14T13:41:38;10.90;99.90
49829;DHT22;35723;51.194;5.112;2023-03-14T13:44:07;10.90;99.90
49829;DHT22;35723;51.194;5.112;2023-03-14T13:46:35;11.00;99.90
49829;DHT22;35723;51.194;5.112;2023-03-14T13:49:11;11.10;99.90
49829;DHT22;35723;51.194;5.112;2023-03-14T13:51:39;11.10;99.90
49829;DHT22;35723;51.194;5.112;2023-03-14T13:54:14;11.20;99.90
49829;DHT22;35723;51.194;5.112;2023-03-14T13:56:39;11.20;99.90
49829;DHT22;35723;51.194;5.112;2023-03-14T13:59:24;11.10;99.90
49829;DHT22;35723;51.194;5.112;2023-03-14T14:01:50;11.10;99.90
49829;DHT22;35723;51.194;5.112;2023-03-14T14:04:20;11.10;99.90
49829;DHT22;35723;51.194;5.112;2023-03-14T14:07:12;11.20;99.90
49829;DHT22;35723;51.194;5.112;2023-03-14T14:09:45;11.20;99.90
49829;DHT22;35723;51.194;5.112;2023-03-14T14:12:22;11.30;99.90
49829;DHT22;35723;51.194;5.112;2023-03-14T14:14:57;11.20;99.90
49829;DHT22;35723;51.194;5.112;2023-03-14T14:18:00;11.20;99.90
49829;DHT22;35723;51.194;5.112;2023-03-14T14:20:30;11.30;99.90
49829;DHT22;35723;51.194;5.112;2023-03-14T14:23:01;11.30;99.90
49829;DHT22;35723;51.194;5.112;2023-03-14T14:25:28;11.20;99.90
49829;DHT22;35723;51.194;5.112;2023-03-14T14:27:54;11.30;99.90
49829;DHT22;35723;51.194;5.112;2023-03-14T14:32:48;11.20;99.90
49829;DHT22;35723;51.194;5.112;2023-03-14T14:35:32;11.10;99.90
49829;DHT22;35723;51.194;5.112;2023-03-14T14:37:59;11.10;99.90
49829;DHT22;35723;51.194;5.112;2023-03-14T14:40:27;10.90;99.90
49829;DHT22;35723;51.194;5.112;2023-03-14T14:42:54;11.10;99.90
49829;DHT22;35723;51.194;5.112;2023-03-14T14:45:23;11.10;99.90
49829;DHT22;35723;51.194;5.112;2023-03-14T14:48:02;11.10;99.90
49829;DHT22;35723;51.194;5.112;2023-03-14T14:50:30;11.10;99.90
49829;DHT22;35723;51.194;5.112;2023-03-14T14:52:59;11.10;99.90
49829;DHT22;35723;51.194;5.112;2023-03-14T14:55:34;11.20;99.90
49829;DHT22;35723;51.194;5.112;2023-03-14T14:58:16;11.10;99.90
49829;DHT22;35723;51.194;5.112;2023-03-14T15:00:59;11.10;99.90
49829;DHT22;35723;51.194;5.112;2023-03-14T15:03:31;11.10;99.90
49829;DHT22;35723;51.194;5.112;2023-03-14T15:05:57;11.10;99.90
49829;DHT22;35723;51.194;5.112;2023-03-14T15:08:25;11.10;99.90
49829;DHT22;35723;51.194;5.112;2023-03-14T15:10:51;11.10;99.90
49829;DHT22;35723;51.194;5.112;2023-03-14T15:13:16;11.00;99.90
49829;DHT22;35723;51.194;5.112;2023-03-14T15:15:42;11.00;99.90
49829;DHT22;35723;51.194;5.112;2023-03-14T15:18:18;10.90;99.90
49829;DHT22;35723;51.194;5.112;2023-03-14T15:20:44;11.00;99.50
49829;DHT22;35723;51.194;5.112;2023-03-14T15:23:12;11.00;99.10
49829;DHT22;35723;51.194;5.112;2023-03-14T15:25:38;11.00;99.00
49829;DHT22;35723;51.194;5.112;2023-03-14T15:28:18;11.00;99.60
49829;DHT22;35723;51.194;5.112;2023-03-14T15:30:46;10.80;99.90
49829;DHT22;35723;51.194;5.112;2023-03-14T15:33:12;10.90;99.90
49829;DHT22;35723;51.194;5.112;2023-03-14T15:35:38;10.90;99.90
49829;DHT22;35723;51.194;5.112;2023-03-14T15:38:04;10.90;99.90
49829;DHT22;35723;51.194;5.112;2023-03-14T15:40:30;10.90;99.90
49829;DHT22;35723;51.194;5.112;2023-03-14T15:42:56;10.80;99.90
49829;DHT22;35723;51.194;5.112;2023-03-14T15:45:21;10.80;99.90
49829;DHT22;35723;51.194;5.112;2023-03-14T15:47:47;10.70;99.90
49829;DHT22;35723;51.194;5.112;2023-03-14T15:50:13;10.80;99.90
49829;DHT22;35723;51.194;5.112;2023-03-14T15:52:38;10.70;99.90
49829;DHT22;35723;51.194;5.112;2023-03-14T15:55:04;10.60;99.90
49829;DHT22;35723;51.194;5.112;2023-03-14T15:57:30;10.60;99.90
49829;DHT22;35723;51.194;5.112;2023-03-14T15:59:55;10.50;99.90
49829;DHT22;35723;51.194;5.112;2023-03-14T16:02:21;10.60;99.90
49829;DHT22;35723;51.194;5.112;2023-03-14T16:04:47;10.50;99.90
49829;DHT22;35723;51.194;5.112;2023-03-14T16:07:12;10.50;99.90
49829;DHT22;35723;51.194;5.112;2023-03-14T16:09:38;10.50;99.90
49829;DHT22;35723;51.194;5.112;2023-03-14T16:12:04;10.50;99.90
49829;DHT22;35723;51.194;5.112;2023-03-14T16:14:30;10.50;99.90
49829;DHT22;35723;51.194;5.112;2023-03-14T16:16:56;10.60;99.90
49829;DHT22;35723;51.194;5.112;2023-03-14T16:19:25;10.50;99.90
49829;DHT22;35723;51.194;5.112;2023-03-14T16:21:52;10.30;99.90
49829;DHT22;35723;51.194;5.112;2023-03-14T16:24:18;10.30;99.90
49829;DHT22;35723;51.194;5.112;2023-03-14T16:26:44;10.20;99.90
49829;DHT22;35723;51.194;5.112;2023-03-14T16:29:10;10.20;99.90
49829;DHT22;35723;51.194;5.112;2023-03-14T16:31:36;10.20;99.90
49829;DHT22;35723;51.194;5.112;2023-03-14T16:34:08;10.20;99.90
49829;DHT22;35723;51.194;5.112;2023-03-14T16:36:34;10.30;99.90
49829;DHT22;35723;51.194;5.112;2023-03-14T16:39:00;10.30;99.90